createdAt,value
2022-10-11T00:01:47.145Z,0.65
2022-10-11T00:04:13.484Z,0.68
2022-10-11T00:06:39.893Z,0.70
2022-10-11T00:09:06.911Z,0.77
2022-10-11T00:11:33.262Z,0.75
2022-10-11T00:13:59.541Z,0.95
2022-10-11T00:16:25.977Z,1.00
2022-10-11T00:18:52.279Z,0.88
2022-10-11T00:21:20.560Z,0.88
2022-10-11T00:23:46.997Z,0.90
2022-10-11T00:26:13.401Z,0.65
2022-10-11T00:28:40.341Z,0.80
2022-10-11T00:31:08.880Z,0.63
2022-10-11T00:33:35.520Z,0.80
2022-10-11T00:36:02.223Z,0.90
2022-10-11T00:38:30.081Z,0.80
2022-10-11T00:40:58.164Z,0.60
2022-10-11T00:43:25.822Z,0.40
2022-10-11T00:45:58.212Z,0.90
2022-10-11T00:48:27.637Z,1.10
2022-10-11T00:50:55.425Z,0.63
2022-10-11T00:53:22.473Z,0.73
2022-10-11T00:55:53.330Z,1.08
2022-10-11T00:58:20.677Z,0.60
2022-10-11T01:00:47.321Z,0.75
2022-10-11T01:03:13.749Z,0.60
2022-10-11T01:05:40.049Z,0.80
2022-10-11T01:08:07.097Z,0.63
2022-10-11T01:10:33.465Z,0.65
2022-10-11T01:13:17.338Z,0.50
2022-10-11T01:15:53.832Z,0.88
2022-10-11T01:18:25.872Z,0.52
2022-10-11T01:23:33.582Z,0.60
2022-10-11T01:26:06.297Z,0.47
2022-10-11T01:28:33.337Z,0.35
2022-10-11T01:31:04.177Z,0.40
2022-10-11T01:33:39.327Z,0.40
2022-10-11T01:36:27.771Z,0.40
2022-10-11T01:38:57.283Z,0.60
2022-10-11T01:41:25.608Z,0.70
2022-10-11T01:43:53.960Z,0.50
2022-10-11T01:46:21.145Z,0.40
2022-10-11T01:48:48.726Z,0.40
2022-10-11T01:51:15.602Z,0.43
2022-10-11T01:53:47.972Z,0.30
2022-10-11T01:56:40.428Z,0.43
2022-10-11T02:01:44.744Z,0.50
2022-10-11T02:04:14.065Z,0.55
2022-10-11T02:06:54.102Z,0.52
2022-10-11T02:09:20.398Z,0.40
2022-10-11T02:11:46.726Z,0.30
2022-10-11T02:14:15.867Z,0.50
2022-10-11T02:16:45.156Z,0.30
2022-10-11T02:19:13.172Z,0.40
2022-10-11T02:21:41.570Z,1.10
2022-10-11T02:24:10.725Z,0.32
2022-10-11T02:26:39.075Z,0.60
2022-10-11T02:29:07.414Z,0.30
2022-10-11T02:31:34.579Z,0.65
2022-10-11T02:34:13.168Z,0.40
2022-10-11T02:36:47.220Z,0.20
2022-10-11T02:39:20.968Z,0.40
2022-10-11T02:41:48.119Z,0.80
2022-10-11T02:44:20.613Z,0.50
2022-10-11T02:46:48.312Z,0.52
2022-10-11T02:49:14.952Z,0.65
2022-10-11T02:51:41.640Z,0.57
2022-10-11T02:54:07.996Z,0.47
2022-10-11T02:56:34.280Z,0.70
2022-10-11T02:59:00.632Z,0.57
2022-10-11T03:01:27.087Z,0.60
2022-10-11T03:03:53.473Z,0.50
2022-10-11T03:06:19.744Z,0.57
2022-10-11T03:08:46.173Z,0.40
2022-10-11T03:11:12.463Z,0.60
2022-10-11T03:13:38.750Z,0.40
2022-10-11T03:16:05.121Z,0.47
2022-10-11T03:18:31.506Z,0.20
2022-10-11T03:20:57.793Z,0.65
2022-10-11T03:23:24.245Z,0.30
2022-10-11T03:25:51.999Z,0.30
2022-10-11T03:28:18.752Z,0.22
2022-10-11T03:30:46.841Z,0.28
2022-10-11T03:33:13.117Z,0.30
2022-10-11T03:35:40.619Z,0.20
2022-10-11T03:38:09.137Z,0.40
2022-10-11T03:40:38.589Z,0.30
2022-10-11T03:43:04.865Z,0.20
2022-10-11T03:45:31.290Z,0.30
2022-10-11T03:47:57.675Z,0.28
2022-10-11T03:50:24.859Z,0.30
2022-10-11T03:52:51.177Z,0.40
2022-10-11T03:55:17.652Z,0.38
2022-10-11T03:57:44.006Z,0.30
2022-10-11T04:00:10.628Z,0.60
2022-10-11T04:02:39.219Z,0.40
2022-10-11T04:05:06.456Z,1.23
2022-10-11T04:07:33.103Z,0.60
2022-10-11T04:09:59.521Z,0.45
2022-10-11T04:12:25.810Z,0.30
2022-10-11T04:14:52.128Z,0.40
2022-10-11T04:17:18.492Z,0.40
2022-10-11T04:19:44.772Z,0.30
2022-10-11T04:22:11.084Z,0.50
2022-10-11T04:24:37.535Z,0.20
2022-10-11T04:27:03.933Z,0.30
2022-10-11T04:29:32.805Z,0.50
2022-10-11T04:31:59.457Z,0.30
2022-10-11T04:34:25.814Z,0.30
2022-10-11T04:36:52.209Z,0.32
2022-10-11T04:39:18.534Z,0.35
2022-10-11T04:41:44.883Z,0.40
2022-10-11T04:44:11.310Z,0.30
2022-10-11T04:46:37.604Z,0.30
2022-10-11T04:49:03.901Z,0.38
2022-10-11T04:51:30.481Z,0.30
2022-10-11T04:53:56.806Z,0.47
2022-10-11T04:56:23.100Z,0.30
2022-10-11T04:58:49.682Z,0.30
2022-10-11T05:01:16.023Z,0.40
2022-10-11T05:03:42.302Z,0.50
2022-10-11T05:06:09.069Z,0.65
2022-10-11T05:08:35.649Z,0.40
2022-10-11T05:11:04.136Z,0.60
2022-10-11T05:13:31.587Z,0.50
2022-10-11T05:15:58.131Z,0.30
2022-10-11T05:18:24.506Z,0.40
2022-10-11T05:21:05.428Z,0.50
2022-10-11T05:23:32.720Z,0.30
2022-10-11T05:25:59.386Z,0.40
2022-10-11T05:28:26.614Z,0.43
2022-10-11T05:30:53.283Z,0.30
2022-10-11T05:33:19.594Z,0.40
2022-10-11T05:35:46.073Z,0.50
2022-10-11T05:38:12.408Z,0.40
2022-10-11T05:40:39.106Z,0.32
2022-10-11T05:43:05.581Z,0.35
2022-10-11T05:45:32.946Z,0.30
2022-10-11T05:47:59.301Z,0.47
2022-10-11T05:50:25.618Z,0.40
2022-10-11T05:52:51.964Z,0.47
2022-10-11T05:55:18.406Z,0.30
2022-10-11T05:57:44.867Z,0.30
2022-10-11T06:00:11.380Z,0.30
2022-10-11T06:02:37.686Z,0.20
2022-10-11T06:05:04.069Z,0.20
2022-10-11T06:07:30.431Z,0.20
2022-10-11T06:09:56.750Z,0.45
2022-10-11T06:12:23.167Z,0.32
2022-10-11T06:14:49.460Z,0.30
2022-10-11T06:17:15.753Z,0.20
2022-10-11T06:19:42.148Z,0.25
2022-10-11T06:22:10.682Z,0.28
2022-10-11T06:24:36.959Z,0.20
2022-10-11T06:27:03.458Z,0.30
2022-10-11T06:29:29.736Z,0.40
2022-10-11T06:31:56.068Z,0.30
2022-10-11T06:34:22.426Z,0.20
2022-10-11T06:36:48.836Z,0.22
2022-10-11T06:39:15.253Z,0.20
2022-10-11T06:41:41.675Z,0.20
2022-10-11T06:44:14.027Z,0.10
2022-10-11T06:46:40.722Z,0.20
2022-10-11T06:49:07.448Z,0.10
2022-10-11T06:51:35.326Z,0.30
2022-10-11T06:54:02.156Z,0.30
2022-10-11T06:56:29.609Z,0.20
2022-10-11T06:58:56.676Z,0.30
2022-10-11T07:01:38.364Z,0.20
2022-10-11T07:04:04.888Z,0.20
2022-10-11T07:06:31.517Z,0.20
2022-10-11T07:08:59.577Z,0.25
2022-10-11T07:11:27.030Z,0.13
2022-10-11T07:13:57.932Z,0.10
2022-10-11T07:16:24.798Z,0.10
2022-10-11T07:18:59.871Z,0.10
2022-10-11T07:21:27.537Z,0.10
2022-10-11T07:23:53.825Z,0.20
2022-10-11T07:26:20.153Z,0.10
2022-10-11T07:28:46.632Z,0.10
2022-10-11T07:31:14.869Z,0.10
2022-10-11T07:33:41.212Z,0.20
2022-10-11T07:36:08.341Z,0.20
2022-10-11T07:38:35.093Z,0.20
2022-10-11T07:41:05.305Z,0.20
2022-10-11T07:43:32.033Z,0.28
2022-10-11T07:46:04.072Z,0.40
2022-10-11T07:48:31.392Z,0.82
2022-10-11T07:51:05.003Z,0.90
2022-10-11T07:53:31.300Z,0.70
2022-10-11T07:56:01.570Z,0.93
2022-10-11T07:58:28.404Z,0.82
2022-10-11T08:00:54.953Z,0.77
2022-10-11T08:03:21.353Z,0.55
2022-10-11T08:05:48.299Z,0.50
2022-10-11T08:08:14.647Z,0.50
2022-10-11T08:10:41.111Z,0.57
2022-10-11T08:13:08.358Z,0.30
2022-10-11T08:15:34.700Z,0.30
2022-10-11T08:18:01.066Z,0.10
2022-10-11T08:20:27.588Z,0.20
2022-10-11T08:22:53.860Z,0.20
2022-10-11T08:25:20.204Z,0.10
2022-10-11T08:27:46.616Z,0.20
2022-10-11T08:30:13.120Z,0.10
2022-10-11T08:32:39.410Z,0.20
2022-10-11T08:35:06.306Z,0.20
2022-10-11T08:37:32.754Z,0.22
2022-10-11T08:39:59.294Z,0.20
2022-10-11T08:42:25.602Z,0.20
2022-10-11T08:45:14.984Z,0.20
2022-10-11T08:47:43.051Z,0.22
2022-10-11T08:50:15.643Z,0.20
2022-10-11T08:52:44.689Z,0.20
2022-10-11T08:55:17.294Z,0.30
2022-10-11T08:57:45.538Z,0.30
2022-10-11T09:00:15.218Z,0.20
2022-10-11T09:03:07.397Z,0.28
2022-10-11T09:05:36.109Z,0.30
2022-10-11T09:08:02.522Z,0.20
2022-10-11T09:10:42.799Z,0.15
2022-10-11T09:13:31.543Z,0.20
2022-10-11T09:16:09.940Z,0.22
2022-10-11T09:18:45.765Z,0.40
2022-10-11T09:21:17.977Z,0.20
2022-10-11T09:24:02.734Z,0.40
2022-10-11T09:26:33.661Z,0.20
2022-10-11T09:29:01.365Z,0.20
2022-10-11T09:31:28.340Z,0.30
2022-10-11T09:33:55.676Z,0.20
2022-10-11T09:36:34.013Z,0.25
2022-10-11T09:39:19.261Z,0.30
2022-10-11T09:41:50.878Z,0.22
2022-10-11T09:44:21.815Z,0.30
2022-10-11T09:46:49.066Z,0.30
2022-10-11T09:49:18.379Z,0.20
2022-10-11T09:51:47.124Z,0.10
2022-10-11T09:54:13.615Z,0.10
2022-10-11T09:56:41.584Z,0.25
2022-10-11T09:59:27.118Z,0.30
2022-10-11T10:02:06.867Z,0.28
2022-10-11T10:04:33.278Z,0.22
2022-10-11T10:07:17.757Z,0.25
2022-10-11T10:09:44.076Z,0.20
2022-10-11T10:12:14.566Z,0.20
2022-10-11T10:14:41.280Z,0.40
2022-10-11T10:17:14.514Z,0.20
2022-10-11T10:19:47.150Z,0.40
2022-10-11T10:22:18.602Z,0.20
2022-10-11T10:24:45.195Z,0.20
2022-10-11T10:27:14.456Z,0.13
2022-10-11T10:29:41.009Z,0.15
2022-10-11T10:32:15.463Z,0.32
2022-10-11T10:34:52.288Z,0.40
2022-10-11T10:37:39.483Z,0.40
2022-10-11T10:40:08.441Z,0.30
2022-10-11T10:42:34.915Z,0.10
2022-10-11T10:45:01.356Z,0.30
2022-10-11T10:47:30.706Z,0.10
2022-10-11T10:50:06.074Z,0.40
2022-10-11T10:52:51.263Z,0.30
2022-10-11T10:55:22.032Z,0.10
2022-10-11T10:58:08.574Z,0.28
2022-10-11T11:00:55.935Z,0.10
2022-10-11T11:03:25.513Z,0.30
2022-10-11T11:06:02.530Z,0.30
2022-10-11T11:08:44.464Z,0.10
2022-10-11T11:11:10.748Z,0.10
2022-10-11T11:13:42.623Z,0.10
2022-10-11T11:18:42.277Z,0.15
2022-10-11T11:21:41.372Z,0.30
2022-10-11T11:24:17.076Z,0.30
2022-10-11T11:26:59.040Z,0.30
2022-10-11T11:32:10.577Z,0.30
2022-10-11T11:34:39.121Z,0.30
2022-10-11T11:37:08.336Z,0.20
2022-10-11T11:39:37.842Z,0.10
2022-10-11T11:42:07.881Z,0.10
2022-10-11T11:44:43.024Z,0.20
2022-10-11T11:47:12.808Z,0.20
2022-10-11T11:52:23.118Z,0.28
2022-10-11T11:54:52.148Z,0.10
2022-10-11T11:57:18.440Z,0.20
2022-10-11T11:59:44.902Z,0.00
2022-10-11T12:02:29.929Z,0.10
2022-10-11T12:04:56.972Z,0.00
2022-10-11T12:07:24.683Z,0.17
2022-10-11T12:09:54.922Z,0.08
2022-10-11T12:12:33.116Z,0.30
2022-10-11T12:15:08.319Z,0.43
2022-10-11T12:17:49.124Z,0.20
2022-10-11T12:20:21.238Z,0.10
2022-10-11T12:22:50.621Z,0.08
2022-10-11T12:25:22.827Z,0.10
2022-10-11T12:27:53.858Z,0.25
2022-10-11T12:30:38.860Z,0.10
2022-10-11T12:33:23.203Z,0.10
2022-10-11T12:35:49.482Z,0.10
2022-10-11T12:38:18.812Z,0.10
2022-10-11T12:40:47.269Z,0.10
2022-10-11T12:43:16.353Z,0.10
2022-10-11T12:45:49.100Z,0.35
2022-10-11T12:48:15.790Z,0.30
2022-10-11T12:50:45.083Z,0.30
2022-10-11T12:53:30.306Z,0.38
2022-10-11T12:55:56.578Z,0.20
2022-10-11T12:58:31.001Z,0.25
2022-10-11T13:00:57.959Z,0.00
2022-10-11T13:03:32.260Z,0.20
2022-10-11T13:06:01.835Z,0.08
2022-10-11T13:08:33.705Z,0.15
2022-10-11T13:11:08.872Z,0.10
2022-10-11T13:13:48.153Z,0.10
2022-10-11T13:16:16.154Z,0.10
2022-10-11T13:18:44.006Z,0.10
2022-10-11T13:21:24.139Z,0.10
2022-10-11T13:23:54.011Z,0.05
2022-10-11T13:26:21.076Z,0.10
2022-10-11T13:28:47.607Z,0.10
2022-10-11T13:31:13.950Z,0.00
2022-10-11T13:33:41.927Z,0.10
2022-10-11T13:36:12.653Z,0.20
2022-10-11T13:38:38.954Z,0.10
2022-10-11T13:41:07.023Z,0.10
2022-10-11T13:43:34.232Z,0.10
2022-10-11T13:46:01.369Z,0.20
2022-10-11T13:48:31.612Z,0.10
2022-10-11T13:51:05.133Z,0.10
2022-10-11T13:53:31.466Z,0.20
2022-10-11T13:56:04.011Z,0.10
2022-10-11T13:58:36.386Z,0.00
2022-10-11T14:01:04.521Z,0.10
2022-10-11T14:03:44.698Z,0.15
2022-10-11T14:06:11.124Z,0.10
2022-10-11T14:08:39.370Z,0.10
2022-10-11T14:11:07.020Z,0.00
2022-10-11T14:13:35.215Z,0.00
2022-10-11T14:16:06.059Z,0.25
2022-10-11T14:18:36.546Z,0.60
2022-10-11T14:21:21.619Z,0.20
2022-10-11T14:23:55.470Z,0.40
2022-10-11T14:26:23.136Z,0.40
2022-10-11T14:28:51.707Z,0.25
2022-10-11T14:31:18.227Z,0.30
2022-10-11T14:33:44.504Z,0.13
2022-10-11T14:36:10.796Z,0.00
2022-10-11T14:38:37.202Z,0.10
2022-10-11T14:41:03.780Z,0.10
2022-10-11T14:43:30.339Z,0.10
2022-10-11T14:45:56.673Z,0.30
2022-10-11T14:48:43.077Z,0.10
2022-10-11T14:51:12.054Z,0.10
2022-10-11T14:53:41.965Z,0.10
2022-10-11T14:56:08.615Z,0.13
2022-10-11T14:58:35.242Z,0.00
2022-10-11T15:01:01.525Z,0.10
2022-10-11T15:03:27.895Z,0.10
2022-10-11T15:05:54.226Z,0.60
2022-10-11T15:08:20.527Z,0.43
2022-10-11T15:10:46.804Z,0.13
2022-10-11T15:13:13.215Z,0.20
2022-10-11T15:15:41.311Z,0.10
2022-10-11T15:18:08.564Z,0.45
2022-10-11T15:20:36.429Z,0.90
2022-10-11T15:23:03.867Z,0.77
2022-10-11T15:25:30.408Z,0.35
2022-10-11T15:27:57.704Z,0.15
2022-10-11T15:30:28.725Z,0.30
2022-10-11T15:32:55.032Z,0.28
2022-10-11T15:35:22.910Z,0.43
2022-10-11T15:37:52.107Z,0.47
2022-10-11T15:40:21.804Z,0.52
2022-10-11T15:42:48.534Z,0.20
2022-10-11T15:45:15.627Z,0.32
2022-10-11T15:47:41.922Z,0.10
2022-10-11T15:50:34.440Z,0.30
2022-10-11T15:53:03.547Z,0.20
2022-10-11T15:55:30.480Z,0.20
2022-10-11T15:57:57.394Z,0.20
2022-10-11T16:00:24.330Z,0.55
2022-10-11T16:02:52.612Z,0.20
2022-10-11T16:05:22.488Z,0.28
2022-10-11T16:07:48.781Z,0.20
2022-10-11T16:10:15.228Z,0.10
2022-10-11T16:12:41.676Z,0.20
2022-10-11T16:15:08.212Z,0.30
2022-10-11T16:17:34.570Z,0.20
2022-10-11T16:20:01.005Z,0.25
2022-10-11T16:22:27.386Z,0.30
2022-10-11T16:24:53.713Z,0.52
2022-10-11T16:27:20.389Z,0.30
2022-10-11T16:29:46.682Z,0.20
2022-10-11T16:32:13.066Z,0.32
2022-10-11T16:34:39.375Z,0.40
2022-10-11T16:37:05.653Z,0.80
2022-10-11T16:39:33.107Z,0.50
2022-10-11T16:41:59.548Z,0.30
2022-10-11T16:44:27.628Z,0.10
2022-10-11T16:46:54.475Z,0.20
2022-10-11T16:49:22.550Z,0.40
2022-10-11T16:51:52.968Z,0.25
2022-10-11T16:54:20.759Z,0.28
2022-10-11T16:56:47.777Z,0.10
2022-10-11T16:59:14.137Z,0.10
2022-10-11T17:01:40.557Z,0.10
2022-10-11T17:04:06.872Z,0.10
2022-10-11T17:06:33.230Z,0.17
2022-10-11T17:08:59.659Z,0.10
2022-10-11T17:11:25.984Z,0.20
2022-10-11T17:13:53.411Z,0.10
2022-10-11T17:16:20.666Z,0.20
2022-10-11T17:18:47.061Z,0.10
2022-10-11T17:21:15.255Z,0.20
2022-10-11T17:23:41.946Z,0.20
2022-10-11T17:26:11.403Z,0.20
2022-10-11T17:28:38.215Z,0.10
2022-10-11T17:31:05.045Z,0.10
2022-10-11T17:33:31.863Z,0.10
2022-10-11T17:35:58.888Z,0.10
2022-10-11T17:38:28.980Z,0.10
2022-10-11T17:40:58.955Z,0.10
2022-10-11T17:43:25.233Z,0.10
2022-10-11T17:45:58.417Z,0.22
2022-10-11T17:48:26.164Z,0.20
2022-10-11T17:50:52.470Z,0.10
2022-10-11T17:53:19.040Z,0.10
2022-10-11T17:55:45.447Z,0.10
2022-10-11T17:58:11.950Z,0.10
2022-10-11T18:00:39.255Z,0.10
2022-10-11T18:03:06.125Z,0.10
2022-10-11T18:05:32.429Z,0.10
2022-10-11T18:07:58.730Z,0.10
2022-10-11T18:10:25.294Z,0.10
2022-10-11T18:12:54.848Z,0.10
2022-10-11T18:15:21.128Z,0.10
2022-10-11T18:17:47.986Z,0.10
2022-10-11T18:20:14.340Z,0.10
2022-10-11T18:22:40.678Z,0.10
2022-10-11T18:25:07.228Z,0.10
2022-10-11T18:27:33.522Z,0.10
2022-10-11T18:29:59.852Z,0.15
2022-10-11T18:32:26.259Z,0.15
2022-10-11T18:34:53.074Z,0.10
2022-10-11T18:37:19.354Z,0.10
2022-10-11T18:39:45.794Z,0.10
2022-10-11T18:42:12.081Z,0.10
2022-10-11T18:44:38.429Z,0.17
2022-10-11T18:47:04.941Z,0.10
2022-10-11T18:49:31.248Z,0.10
2022-10-11T18:51:57.664Z,0.13
2022-10-11T18:54:24.087Z,0.10
2022-10-11T18:56:50.619Z,0.10
2022-10-11T18:59:17.356Z,0.10
2022-10-11T19:01:44.786Z,0.10
2022-10-11T19:04:12.574Z,0.10
2022-10-11T19:06:40.838Z,0.10
2022-10-11T19:09:09.270Z,0.10
2022-10-11T19:11:35.724Z,0.10
2022-10-11T19:14:02.027Z,0.10
2022-10-11T19:16:29.760Z,0.10
2022-10-11T19:18:56.895Z,0.10
2022-10-11T19:21:23.377Z,0.10
2022-10-11T19:23:50.545Z,0.10
2022-10-11T19:26:18.711Z,0.20
2022-10-11T19:28:45.285Z,0.10
2022-10-11T19:31:13.299Z,0.20
2022-10-11T19:33:40.185Z,0.20
2022-10-11T19:36:07.603Z,0.20
2022-10-11T19:38:35.066Z,0.20
2022-10-11T19:41:02.396Z,0.10
2022-10-11T19:43:29.130Z,0.30
2022-10-11T19:46:02.586Z,0.20
2022-10-11T19:48:29.402Z,0.20
2022-10-11T19:51:06.217Z,0.20
2022-10-11T19:53:32.853Z,0.20
2022-10-11T19:55:59.763Z,0.10
2022-10-11T19:58:26.172Z,0.30
2022-10-11T20:01:02.279Z,0.20
2022-10-11T20:03:28.748Z,0.20
2022-10-11T20:05:55.029Z,0.20
2022-10-11T20:08:21.699Z,0.20
2022-10-11T20:10:48.249Z,0.20
2022-10-11T20:13:14.548Z,0.10
2022-10-11T20:15:40.946Z,0.30
2022-10-11T20:18:07.357Z,0.40
2022-10-11T20:20:33.731Z,0.20
2022-10-11T20:23:00.078Z,0.20
2022-10-11T20:25:26.580Z,0.22
2022-10-11T20:27:52.863Z,0.30
2022-10-11T20:30:19.140Z,0.20
2022-10-11T20:32:45.455Z,0.30
2022-10-11T20:35:11.735Z,0.10
2022-10-11T20:37:38.086Z,0.25
2022-10-11T20:40:04.715Z,0.30
2022-10-11T20:42:31.099Z,0.32
2022-10-11T20:44:58.724Z,0.38
2022-10-11T20:47:25.122Z,0.40
2022-10-11T20:49:51.410Z,0.40
2022-10-11T20:52:17.697Z,0.30
2022-10-11T20:54:44.077Z,0.40
2022-10-11T20:57:10.352Z,0.50
2022-10-11T20:59:37.823Z,0.30
2022-10-11T21:02:04.232Z,0.40
2022-10-11T21:04:30.600Z,0.40
2022-10-11T21:06:56.914Z,0.40
2022-10-11T21:09:23.401Z,0.30
2022-10-11T21:11:49.683Z,0.22
2022-10-11T21:14:16.024Z,0.30
2022-10-11T21:16:42.433Z,0.30
2022-10-11T21:19:12.005Z,0.40
2022-10-11T21:21:38.290Z,0.20
2022-10-11T21:24:04.750Z,0.40
2022-10-11T21:26:31.162Z,0.30
2022-10-11T21:28:59.292Z,0.20
2022-10-11T21:31:29.618Z,0.25
2022-10-11T21:33:59.248Z,0.20
2022-10-11T21:36:25.867Z,0.28
2022-10-11T21:38:52.927Z,0.10
2022-10-11T21:41:20.374Z,0.20
2022-10-11T21:43:47.288Z,0.20
2022-10-11T21:46:29.288Z,0.20
2022-10-11T21:49:03.214Z,0.20
2022-10-11T21:51:30.890Z,0.32
2022-10-11T21:53:57.498Z,0.30
2022-10-11T21:56:23.837Z,0.40
2022-10-11T21:58:50.374Z,0.40
2022-10-11T22:01:17.655Z,0.20
2022-10-11T22:03:44.041Z,0.20
2022-10-11T22:06:10.602Z,0.20
2022-10-11T22:08:37.170Z,0.22
2022-10-11T22:11:03.632Z,0.22
2022-10-11T22:13:31.143Z,0.30
2022-10-11T22:15:57.438Z,0.30
2022-10-11T22:18:23.981Z,0.38
2022-10-11T22:20:50.340Z,0.30
2022-10-11T22:23:17.261Z,0.30
2022-10-11T22:25:43.545Z,0.30
2022-10-11T22:28:10.013Z,0.30
2022-10-11T22:30:36.503Z,0.30
2022-10-11T22:33:02.884Z,0.25
2022-10-11T22:35:31.392Z,0.28
2022-10-11T22:37:59.924Z,0.20
2022-10-11T22:40:26.259Z,0.40
2022-10-11T22:42:52.727Z,0.20
2022-10-11T22:45:19.018Z,0.20
2022-10-11T22:47:45.296Z,0.22
2022-10-11T22:50:11.689Z,0.20
2022-10-11T22:52:38.806Z,0.30
2022-10-11T22:55:05.282Z,0.32
2022-10-11T22:57:31.596Z,0.20
2022-10-11T22:59:57.876Z,0.20
2022-10-11T23:02:24.176Z,0.20
2022-10-11T23:04:50.584Z,0.20
2022-10-11T23:07:16.948Z,0.20
2022-10-11T23:09:43.482Z,0.30
2022-10-11T23:12:09.800Z,0.22
2022-10-11T23:14:36.263Z,0.40
2022-10-11T23:17:02.569Z,0.30
2022-10-11T23:19:28.980Z,0.55
2022-10-11T23:21:55.271Z,0.25
2022-10-11T23:24:21.653Z,0.40
2022-10-11T23:26:48.063Z,0.40
2022-10-11T23:29:14.344Z,0.50
2022-10-11T23:31:40.620Z,0.40
2022-10-11T23:34:07.034Z,0.30
2022-10-11T23:36:33.311Z,0.40
2022-10-11T23:38:59.655Z,0.20
2022-10-11T23:41:27.597Z,0.30
2022-10-11T23:43:53.872Z,0.20
2022-10-11T23:46:20.176Z,0.45
2022-10-11T23:48:46.880Z,0.40
2022-10-11T23:51:13.409Z,0.30
2022-10-11T23:53:39.694Z,0.30
2022-10-11T23:56:06.345Z,0.30
2022-10-11T23:58:32.642Z,0.20
